sensor_id;sensor_type;location;lat;lon;timestamp;P1;durP1;ratioP1;P2;durP2;ratioP2
20997;SDS011;10657;51.276;6.390;2023-05-07T00:00:55;11.38;;;7.18;;
20997;SDS011;10657;51.276;6.390;2023-05-07T00:03:21;10.68;;;7.28;;
20997;SDS011;10657;51.276;6.390;2023-05-07T00:05:48;14.77;;;8.48;;
20997;SDS011;10657;51.276;6.390;2023-05-07T00:08:15;13.95;;;7.25;;
20997;SDS011;10657;51.276;6.390;2023-05-07T00:10:42;10.48;;;6.95;;
20997;SDS011;10657;51.276;6.390;2023-05-07T00:13:08;10.32;;;6.40;;
20997;SDS011;10657;51.276;6.390;2023-05-07T00:15:35;11.60;;;6.93;;
20997;SDS011;10657;51.276;6.390;2023-05-07T00:18:02;12.40;;;6.80;;
20997;SDS011;10657;51.276;6.390;2023-05-07T00:20:28;10.75;;;6.80;;
20997;SDS011;10657;51.276;6.390;2023-05-07T00:22:55;9.70;;;6.03;;
20997;SDS011;10657;51.276;6.390;2023-05-07T00:25:22;8.27;;;5.45;;
20997;SDS011;10657;51.276;6.390;2023-05-07T00:27:48;7.85;;;4.70;;
20997;SDS011;10657;51.276;6.390;2023-05-07T00:30:15;8.25;;;4.97;;
20997;SDS011;10657;51.276;6.390;2023-05-07T00:32:42;8.38;;;5.10;;
20997;SDS011;10657;51.276;6.390;2023-05-07T00:35:11;8.98;;;4.82;;
20997;SDS011;10657;51.276;6.390;2023-05-07T00:37:38;10.73;;;5.35;;
20997;SDS011;10657;51.276;6.390;2023-05-07T00:40:05;9.13;;;5.85;;
20997;SDS011;10657;51.276;6.390;2023-05-07T00:42:34;10.25;;;6.38;;
20997;SDS011;10657;51.276;6.390;2023-05-07T00:45:00;9.20;;;5.72;;
20997;SDS011;10657;51.276;6.390;2023-05-07T00:47:27;9.98;;;6.63;;
20997;SDS011;10657;51.276;6.390;2023-05-07T00:49:54;11.02;;;7.68;;
20997;SDS011;10657;51.276;6.390;2023-05-07T00:52:20;11.93;;;7.28;;
20997;SDS011;10657;51.276;6.390;2023-05-07T00:54:50;10.77;;;6.43;;
20997;SDS011;10657;51.276;6.390;2023-05-07T00:57:16;10.00;;;5.78;;
20997;SDS011;10657;51.276;6.390;2023-05-07T00:59:43;11.50;;;6.20;;
20997;SDS011;10657;51.276;6.390;2023-05-07T01:02:10;9.23;;;6.20;;
20997;SDS011;10657;51.276;6.390;2023-05-07T01:04:37;12.52;;;6.22;;
20997;SDS011;10657;51.276;6.390;2023-05-07T01:07:04;11.07;;;6.78;;
20997;SDS011;10657;51.276;6.390;2023-05-07T01:09:31;10.20;;;6.93;;
20997;SDS011;10657;51.276;6.390;2023-05-07T01:11:58;10.18;;;7.15;;
20997;SDS011;10657;51.276;6.390;2023-05-07T01:14:25;11.85;;;7.72;;
20997;SDS011;10657;51.276;6.390;2023-05-07T01:16:52;9.75;;;6.93;;
20997;SDS011;10657;51.276;6.390;2023-05-07T01:19:19;13.77;;;7.10;;
20997;SDS011;10657;51.276;6.390;2023-05-07T01:21:47;9.35;;;6.03;;
20997;SDS011;10657;51.276;6.390;2023-05-07T01:24:14;11.70;;;7.35;;
20997;SDS011;10657;51.276;6.390;2023-05-07T01:26:42;10.32;;;6.70;;
20997;SDS011;10657;51.276;6.390;2023-05-07T01:29:10;10.48;;;6.90;;
20997;SDS011;10657;51.276;6.390;2023-05-07T01:31:37;8.68;;;6.03;;
20997;SDS011;10657;51.276;6.390;2023-05-07T01:34:06;9.57;;;6.03;;
20997;SDS011;10657;51.276;6.390;2023-05-07T01:36:34;8.55;;;5.63;;
20997;SDS011;10657;51.276;6.390;2023-05-07T01:39:05;11.27;;;7.55;;
20997;SDS011;10657;51.276;6.390;2023-05-07T01:41:32;11.02;;;7.72;;
20997;SDS011;10657;51.276;6.390;2023-05-07T01:43:59;12.32;;;7.78;;
20997;SDS011;10657;51.276;6.390;2023-05-07T01:46:27;12.90;;;8.63;;
20997;SDS011;10657;51.276;6.390;2023-05-07T01:48:54;13.48;;;7.82;;
20997;SDS011;10657;51.276;6.390;2023-05-07T01:51:21;10.77;;;7.75;;
20997;SDS011;10657;51.276;6.390;2023-05-07T01:53:48;11.07;;;6.80;;
20997;SDS011;10657;51.276;6.390;2023-05-07T01:56:17;9.98;;;6.43;;
20997;SDS011;10657;51.276;6.390;2023-05-07T01:58:44;13.68;;;6.70;;
20997;SDS011;10657;51.276;6.390;2023-05-07T02:01:14;9.60;;;6.60;;
20997;SDS011;10657;51.276;6.390;2023-05-07T02:03:41;9.68;;;5.85;;
20997;SDS011;10657;51.276;6.390;2023-05-07T02:06:08;8.02;;;5.38;;
20997;SDS011;10657;51.276;6.390;2023-05-07T02:08:35;8.48;;;5.50;;
20997;SDS011;10657;51.276;6.390;2023-05-07T02:11:01;9.48;;;5.47;;
20997;SDS011;10657;51.276;6.390;2023-05-07T02:13:29;11.15;;;5.13;;
20997;SDS011;10657;51.276;6.390;2023-05-07T02:15:58;8.60;;;5.53;;
20997;SDS011;10657;51.276;6.390;2023-05-07T02:18:25;8.73;;;5.85;;
20997;SDS011;10657;51.276;6.390;2023-05-07T02:20:52;9.98;;;5.70;;
20997;SDS011;10657;51.276;6.390;2023-05-07T02:23:18;9.18;;;5.13;;
20997;SDS011;10657;51.276;6.390;2023-05-07T02:25:45;8.55;;;4.90;;
20997;SDS011;10657;51.276;6.390;2023-05-07T02:28:12;8.50;;;5.10;;
20997;SDS011;10657;51.276;6.390;2023-05-07T02:30:39;8.90;;;4.93;;
20997;SDS011;10657;51.276;6.390;2023-05-07T02:33:06;8.30;;;4.45;;
20997;SDS011;10657;51.276;6.390;2023-05-07T02:35:34;8.35;;;5.13;;
20997;SDS011;10657;51.276;6.390;2023-05-07T02:38:01;8.45;;;4.57;;
20997;SDS011;10657;51.276;6.390;2023-05-07T02:40:27;7.78;;;4.57;;
20997;SDS011;10657;51.276;6.390;2023-05-07T02:42:54;7.95;;;4.53;;
20997;SDS011;10657;51.276;6.390;2023-05-07T02:45:21;9.02;;;5.18;;
20997;SDS011;10657;51.276;6.390;2023-05-07T02:47:48;8.05;;;5.40;;
20997;SDS011;10657;51.276;6.390;2023-05-07T02:50:14;11.10;;;5.97;;
20997;SDS011;10657;51.276;6.390;2023-05-07T02:52:41;8.75;;;5.53;;
20997;SDS011;10657;51.276;6.390;2023-05-07T02:55:08;9.05;;;5.05;;
20997;SDS011;10657;51.276;6.390;2023-05-07T02:57:35;8.25;;;4.72;;
20997;SDS011;10657;51.276;6.390;2023-05-07T03:00:09;8.98;;;4.82;;
20997;SDS011;10657;51.276;6.390;2023-05-07T03:02:39;7.95;;;5.03;;
20997;SDS011;10657;51.276;6.390;2023-05-07T03:05:06;8.82;;;5.03;;
20997;SDS011;10657;51.276;6.390;2023-05-07T03:07:34;8.90;;;4.65;;
20997;SDS011;10657;51.276;6.390;2023-05-07T03:10:02;8.38;;;4.72;;
20997;SDS011;10657;51.276;6.390;2023-05-07T03:12:30;7.53;;;4.82;;
20997;SDS011;10657;51.276;6.390;2023-05-07T03:14:57;7.50;;;4.32;;
20997;SDS011;10657;51.276;6.390;2023-05-07T03:17:23;7.97;;;5.03;;
20997;SDS011;10657;51.276;6.390;2023-05-07T03:19:50;8.38;;;4.68;;
20997;SDS011;10657;51.276;6.390;2023-05-07T03:22:17;8.07;;;5.20;;
20997;SDS011;10657;51.276;6.390;2023-05-07T03:24:44;7.80;;;4.55;;
20997;SDS011;10657;51.276;6.390;2023-05-07T03:27:10;8.48;;;4.97;;
20997;SDS011;10657;51.276;6.390;2023-05-07T03:29:37;9.60;;;4.97;;
20997;SDS011;10657;51.276;6.390;2023-05-07T03:32:03;8.73;;;5.03;;
20997;SDS011;10657;51.276;6.390;2023-05-07T03:34:31;8.18;;;4.53;;
20997;SDS011;10657;51.276;6.390;2023-05-07T03:36:58;9.07;;;4.85;;
20997;SDS011;10657;51.276;6.390;2023-05-07T03:39:26;9.48;;;4.28;;
20997;SDS011;10657;51.276;6.390;2023-05-07T03:41:53;10.55;;;4.95;;
20997;SDS011;10657;51.276;6.390;2023-05-07T03:44:19;7.20;;;4.38;;
20997;SDS011;10657;51.276;6.390;2023-05-07T03:46:46;7.38;;;4.05;;
20997;SDS011;10657;51.276;6.390;2023-05-07T03:49:13;7.47;;;4.53;;
20997;SDS011;10657;51.276;6.390;2023-05-07T03:51:40;8.80;;;4.28;;
20997;SDS011;10657;51.276;6.390;2023-05-07T03:54:06;7.35;;;4.00;;
20997;SDS011;10657;51.276;6.390;2023-05-07T03:56:33;9.30;;;4.43;;
20997;SDS011;10657;51.276;6.390;2023-05-07T03:59:00;8.50;;;4.43;;
20997;SDS011;10657;51.276;6.390;2023-05-07T04:01:27;7.90;;;4.18;;
20997;SDS011;10657;51.276;6.390;2023-05-07T04:03:54;8.02;;;4.22;;
20997;SDS011;10657;51.276;6.390;2023-05-07T04:06:21;7.95;;;4.85;;
20997;SDS011;10657;51.276;6.390;2023-05-07T04:08:48;8.55;;;4.40;;
20997;SDS011;10657;51.276;6.390;2023-05-07T04:11:15;7.10;;;4.10;;
20997;SDS011;10657;51.276;6.390;2023-05-07T04:13:42;9.35;;;4.20;;
20997;SDS011;10657;51.276;6.390;2023-05-07T04:16:08;10.63;;;4.80;;
20997;SDS011;10657;51.276;6.390;2023-05-07T04:18:35;6.15;;;3.85;;
20997;SDS011;10657;51.276;6.390;2023-05-07T04:21:02;6.47;;;3.33;;
20997;SDS011;10657;51.276;6.390;2023-05-07T04:23:28;7.47;;;4.18;;
20997;SDS011;10657;51.276;6.390;2023-05-07T04:25:55;8.20;;;3.88;;
20997;SDS011;10657;51.276;6.390;2023-05-07T04:28:22;7.40;;;4.15;;
20997;SDS011;10657;51.276;6.390;2023-05-07T04:30:48;8.00;;;4.30;;
20997;SDS011;10657;51.276;6.390;2023-05-07T04:33:15;6.80;;;3.65;;
20997;SDS011;10657;51.276;6.390;2023-05-07T04:35:43;7.93;;;4.38;;
20997;SDS011;10657;51.276;6.390;2023-05-07T04:38:09;6.72;;;3.75;;
20997;SDS011;10657;51.276;6.390;2023-05-07T04:40:37;6.63;;;3.80;;
20997;SDS011;10657;51.276;6.390;2023-05-07T04:43:04;8.70;;;3.88;;
20997;SDS011;10657;51.276;6.390;2023-05-07T04:45:31;7.95;;;4.28;;
20997;SDS011;10657;51.276;6.390;2023-05-07T04:47:58;6.35;;;3.63;;
20997;SDS011;10657;51.276;6.390;2023-05-07T04:50:25;7.38;;;3.70;;
20997;SDS011;10657;51.276;6.390;2023-05-07T04:52:51;7.43;;;3.45;;
20997;SDS011;10657;51.276;6.390;2023-05-07T04:55:18;6.32;;;3.65;;
20997;SDS011;10657;51.276;6.390;2023-05-07T04:57:45;7.85;;;4.13;;
20997;SDS011;10657;51.276;6.390;2023-05-07T05:00:12;7.70;;;3.85;;
20997;SDS011;10657;51.276;6.390;2023-05-07T05:02:40;7.95;;;3.78;;
20997;SDS011;10657;51.276;6.390;2023-05-07T05:05:07;6.40;;;3.67;;
20997;SDS011;10657;51.276;6.390;2023-05-07T05:07:34;7.68;;;3.78;;
20997;SDS011;10657;51.276;6.390;2023-05-07T05:10:01;6.97;;;3.88;;
20997;SDS011;10657;51.276;6.390;2023-05-07T05:12:29;7.47;;;3.65;;
20997;SDS011;10657;51.276;6.390;2023-05-07T05:14:56;7.20;;;3.88;;
20997;SDS011;10657;51.276;6.390;2023-05-07T05:17:23;6.32;;;3.50;;
20997;SDS011;10657;51.276;6.390;2023-05-07T05:19:49;5.93;;;3.38;;
20997;SDS011;10657;51.276;6.390;2023-05-07T05:22:16;5.95;;;3.35;;
20997;SDS011;10657;51.276;6.390;2023-05-07T05:24:43;7.53;;;3.72;;
20997;SDS011;10657;51.276;6.390;2023-05-07T05:27:10;6.25;;;3.40;;
20997;SDS011;10657;51.276;6.390;2023-05-07T05:29:36;10.25;;;4.00;;
20997;SDS011;10657;51.276;6.390;2023-05-07T05:32:03;7.05;;;3.80;;
20997;SDS011;10657;51.276;6.390;2023-05-07T05:34:30;6.82;;;3.67;;
20997;SDS011;10657;51.276;6.390;2023-05-07T05:36:56;5.95;;;3.10;;
20997;SDS011;10657;51.276;6.390;2023-05-07T05:39:24;7.10;;;3.28;;
20997;SDS011;10657;51.276;6.390;2023-05-07T05:41:51;6.32;;;2.92;;
20997;SDS011;10657;51.276;6.390;2023-05-07T05:44:17;6.68;;;3.40;;
20997;SDS011;10657;51.276;6.390;2023-05-07T05:46:44;7.03;;;3.03;;
20997;SDS011;10657;51.276;6.390;2023-05-07T05:49:11;6.40;;;3.60;;
20997;SDS011;10657;51.276;6.390;2023-05-07T05:51:37;6.60;;;2.90;;
20997;SDS011;10657;51.276;6.390;2023-05-07T05:54:04;6.80;;;3.40;;
20997;SDS011;10657;51.276;6.390;2023-05-07T05:56:31;5.88;;;3.40;;
20997;SDS011;10657;51.276;6.390;2023-05-07T05:58:57;6.65;;;3.50;;
20997;SDS011;10657;51.276;6.390;2023-05-07T06:01:24;6.22;;;3.10;;
20997;SDS011;10657;51.276;6.390;2023-05-07T06:03:51;7.20;;;3.58;;
20997;SDS011;10657;51.276;6.390;2023-05-07T06:06:18;7.22;;;3.90;;
20997;SDS011;10657;51.276;6.390;2023-05-07T06:08:45;5.63;;;3.08;;
20997;SDS011;10657;51.276;6.390;2023-05-07T06:11:11;5.75;;;3.08;;
20997;SDS011;10657;51.276;6.390;2023-05-07T06:13:38;8.38;;;3.53;;
20997;SDS011;10657;51.276;6.390;2023-05-07T06:16:05;6.93;;;3.45;;
20997;SDS011;10657;51.276;6.390;2023-05-07T06:18:32;6.68;;;3.50;;
20997;SDS011;10657;51.276;6.390;2023-05-07T06:20:59;6.38;;;3.53;;
20997;SDS011;10657;51.276;6.390;2023-05-07T06:23:25;7.05;;;3.45;;
20997;SDS011;10657;51.276;6.390;2023-05-07T06:25:52;8.25;;;4.30;;
20997;SDS011;10657;51.276;6.390;2023-05-07T06:28:18;8.10;;;3.72;;
20997;SDS011;10657;51.276;6.390;2023-05-07T06:30:45;7.55;;;3.58;;
20997;SDS011;10657;51.276;6.390;2023-05-07T06:33:12;5.82;;;3.10;;
20997;SDS011;10657;51.276;6.390;2023-05-07T06:35:38;6.18;;;3.47;;
20997;SDS011;10657;51.276;6.390;2023-05-07T06:38:05;6.18;;;2.97;;
20997;SDS011;10657;51.276;6.390;2023-05-07T06:40:32;7.13;;;2.75;;
20997;SDS011;10657;51.276;6.390;2023-05-07T06:42:58;8.25;;;3.28;;
20997;SDS011;10657;51.276;6.390;2023-05-07T06:45:25;5.95;;;2.95;;
20997;SDS011;10657;51.276;6.390;2023-05-07T06:47:52;6.65;;;3.08;;
20997;SDS011;10657;51.276;6.390;2023-05-07T06:50:18;5.25;;;1.83;;
20997;SDS011;10657;51.276;6.390;2023-05-07T06:52:46;5.57;;;3.00;;
20997;SDS011;10657;51.276;6.390;2023-05-07T06:55:13;4.00;;;1.95;;
20997;SDS011;10657;51.276;6.390;2023-05-07T06:57:39;8.45;;;3.30;;
20997;SDS011;10657;51.276;6.390;2023-05-07T07:00:06;3.38;;;1.42;;
20997;SDS011;10657;51.276;6.390;2023-05-07T07:02:36;6.40;;;2.53;;
20997;SDS011;10657;51.276;6.390;2023-05-07T07:05:03;6.22;;;2.40;;
20997;SDS011;10657;51.276;6.390;2023-05-07T07:07:30;5.47;;;2.45;;
20997;SDS011;10657;51.276;6.390;2023-05-07T07:09:56;5.72;;;2.58;;
20997;SDS011;10657;51.276;6.390;2023-05-07T07:12:23;5.80;;;2.65;;
20997;SDS011;10657;51.276;6.390;2023-05-07T07:14:52;4.32;;;1.73;;
20997;SDS011;10657;51.276;6.390;2023-05-07T07:17:20;5.80;;;2.03;;
20997;SDS011;10657;51.276;6.390;2023-05-07T07:19:47;5.13;;;2.58;;
20997;SDS011;10657;51.276;6.390;2023-05-07T07:22:13;5.70;;;2.53;;
20997;SDS011;10657;51.276;6.390;2023-05-07T07:24:40;6.13;;;2.95;;
20997;SDS011;10657;51.276;6.390;2023-05-07T07:27:06;6.38;;;3.03;;
20997;SDS011;10657;51.276;6.390;2023-05-07T07:29:33;6.15;;;2.85;;
20997;SDS011;10657;51.276;6.390;2023-05-07T07:32:00;6.30;;;2.72;;
20997;SDS011;10657;51.276;6.390;2023-05-07T07:34:27;7.57;;;2.97;;
20997;SDS011;10657;51.276;6.390;2023-05-07T07:36:53;6.28;;;2.90;;
20997;SDS011;10657;51.276;6.390;2023-05-07T07:39:20;6.65;;;3.40;;
20997;SDS011;10657;51.276;6.390;2023-05-07T07:41:46;4.85;;;2.10;;
20997;SDS011;10657;51.276;6.390;2023-05-07T07:44:13;6.35;;;2.95;;
20997;SDS011;10657;51.276;6.390;2023-05-07T07:46:41;3.65;;;1.65;;
20997;SDS011;10657;51.276;6.390;2023-05-07T07:49:08;6.97;;;3.00;;
20997;SDS011;10657;51.276;6.390;2023-05-07T07:51:34;6.05;;;3.10;;
20997;SDS011;10657;51.276;6.390;2023-05-07T07:54:01;6.72;;;2.60;;
20997;SDS011;10657;51.276;6.390;2023-05-07T07:56:28;3.67;;;1.52;;
20997;SDS011;10657;51.276;6.390;2023-05-07T07:58:55;4.72;;;2.40;;
20997;SDS011;10657;51.276;6.390;2023-05-07T08:01:22;4.90;;;1.77;;
20997;SDS011;10657;51.276;6.390;2023-05-07T08:03:48;5.45;;;2.42;;
20997;SDS011;10657;51.276;6.390;2023-05-07T08:06:15;3.58;;;1.70;;
20997;SDS011;10657;51.276;6.390;2023-05-07T08:08:42;7.45;;;3.28;;
20997;SDS011;10657;51.276;6.390;2023-05-07T08:11:09;6.60;;;3.30;;
20997;SDS011;10657;51.276;6.390;2023-05-07T08:13:36;5.13;;;2.47;;
20997;SDS011;10657;51.276;6.390;2023-05-07T08:16:04;5.28;;;2.78;;
20997;SDS011;10657;51.276;6.390;2023-05-07T08:18:30;8.18;;;3.28;;
20997;SDS011;10657;51.276;6.390;2023-05-07T08:20:57;6.80;;;3.28;;
20997;SDS011;10657;51.276;6.390;2023-05-07T08:23:24;6.63;;;3.28;;
20997;SDS011;10657;51.276;6.390;2023-05-07T08:25:50;6.75;;;3.20;;
20997;SDS011;10657;51.276;6.390;2023-05-07T08:28:18;3.72;;;1.67;;
20997;SDS011;10657;51.276;6.390;2023-05-07T08:30:45;5.97;;;2.97;;
20997;SDS011;10657;51.276;6.390;2023-05-07T08:33:13;4.40;;;1.70;;
20997;SDS011;10657;51.276;6.390;2023-05-07T08:35:39;7.70;;;3.40;;
20997;SDS011;10657;51.276;6.390;2023-05-07T08:38:06;3.42;;;1.48;;
20997;SDS011;10657;51.276;6.390;2023-05-07T08:40:36;3.00;;;1.40;;
20997;SDS011;10657;51.276;6.390;2023-05-07T08:43:07;7.00;;;3.60;;
20997;SDS011;10657;51.276;6.390;2023-05-07T08:45:34;4.68;;;2.20;;
20997;SDS011;10657;51.276;6.390;2023-05-07T08:48:02;5.15;;;2.17;;
20997;SDS011;10657;51.276;6.390;2023-05-07T08:50:31;6.03;;;2.95;;
20997;SDS011;10657;51.276;6.390;2023-05-07T08:53:02;6.80;;;3.53;;
20997;SDS011;10657;51.276;6.390;2023-05-07T08:55:29;3.78;;;1.80;;
20997;SDS011;10657;51.276;6.390;2023-05-07T08:57:56;7.97;;;2.72;;
20997;SDS011;10657;51.276;6.390;2023-05-07T09:00:23;6.32;;;2.30;;
20997;SDS011;10657;51.276;6.390;2023-05-07T09:02:50;6.35;;;3.03;;
20997;SDS011;10657;51.276;6.390;2023-05-07T09:05:18;6.78;;;3.13;;
20997;SDS011;10657;51.276;6.390;2023-05-07T09:07:45;5.50;;;2.50;;
20997;SDS011;10657;51.276;6.390;2023-05-07T09:10:12;5.93;;;2.65;;
20997;SDS011;10657;51.276;6.390;2023-05-07T09:12:39;6.00;;;2.47;;
20997;SDS011;10657;51.276;6.390;2023-05-07T09:15:06;6.88;;;3.30;;
20997;SDS011;10657;51.276;6.390;2023-05-07T09:17:34;6.07;;;3.05;;
20997;SDS011;10657;51.276;6.390;2023-05-07T09:20:04;7.15;;;2.60;;
20997;SDS011;10657;51.276;6.390;2023-05-07T09:22:36;5.43;;;2.15;;
20997;SDS011;10657;51.276;6.390;2023-05-07T09:25:05;6.30;;;1.83;;
20997;SDS011;10657;51.276;6.390;2023-05-07T09:27:33;9.30;;;2.67;;
20997;SDS011;10657;51.276;6.390;2023-05-07T09:30:02;5.43;;;2.33;;
20997;SDS011;10657;51.276;6.390;2023-05-07T09:32:34;2.90;;;1.20;;
20997;SDS011;10657;51.276;6.390;2023-05-07T09:35:04;8.13;;;3.45;;
20997;SDS011;10657;51.276;6.390;2023-05-07T09:37:31;6.28;;;2.92;;
20997;SDS011;10657;51.276;6.390;2023-05-07T09:39:58;5.00;;;2.33;;
20997;SDS011;10657;51.276;6.390;2023-05-07T09:42:25;5.68;;;2.17;;
20997;SDS011;10657;51.276;6.390;2023-05-07T09:44:54;3.97;;;1.70;;
20997;SDS011;10657;51.276;6.390;2023-05-07T09:47:23;6.95;;;3.53;;
20997;SDS011;10657;51.276;6.390;2023-05-07T09:49:50;7.57;;;3.63;;
20997;SDS011;10657;51.276;6.390;2023-05-07T09:52:22;7.65;;;4.03;;
20997;SDS011;10657;51.276;6.390;2023-05-07T09:54:50;4.38;;;1.38;;
20997;SDS011;10657;51.276;6.390;2023-05-07T09:57:17;5.53;;;3.10;;
20997;SDS011;10657;51.276;6.390;2023-05-07T09:59:46;3.25;;;1.50;;
20997;SDS011;10657;51.276;6.390;2023-05-07T10:02:15;3.70;;;1.42;;
20997;SDS011;10657;51.276;6.390;2023-05-07T10:04:43;6.60;;;2.60;;
20997;SDS011;10657;51.276;6.390;2023-05-07T10:07:11;4.82;;;2.33;;
20997;SDS011;10657;51.276;6.390;2023-05-07T10:09:39;6.57;;;2.35;;
20997;SDS011;10657;51.276;6.390;2023-05-07T10:12:08;4.07;;;1.50;;
20997;SDS011;10657;51.276;6.390;2023-05-07T10:14:35;2.13;;;1.13;;
20997;SDS011;10657;51.276;6.390;2023-05-07T10:17:03;5.35;;;2.35;;
20997;SDS011;10657;51.276;6.390;2023-05-07T10:19:30;4.90;;;1.95;;
20997;SDS011;10657;51.276;6.390;2023-05-07T10:22:03;5.18;;;2.38;;
20997;SDS011;10657;51.276;6.390;2023-05-07T10:24:32;4.20;;;1.92;;
20997;SDS011;10657;51.276;6.390;2023-05-07T10:27:07;6.20;;;2.00;;
20997;SDS011;10657;51.276;6.390;2023-05-07T10:29:45;6.68;;;2.50;;
20997;SDS011;10657;51.276;6.390;2023-05-07T10:32:26;4.88;;;2.15;;
20997;SDS011;10657;51.276;6.390;2023-05-07T10:34:57;5.53;;;2.50;;
20997;SDS011;10657;51.276;6.390;2023-05-07T10:37:26;6.88;;;2.90;;
20997;SDS011;10657;51.276;6.390;2023-05-07T10:39:53;3.70;;;1.27;;
20997;SDS011;10657;51.276;6.390;2023-05-07T10:42:19;5.90;;;2.33;;
20997;SDS011;10657;51.276;6.390;2023-05-07T10:44:46;4.75;;;1.88;;
20997;SDS011;10657;51.276;6.390;2023-05-07T10:47:14;5.60;;;2.15;;
20997;SDS011;10657;51.276;6.390;2023-05-07T10:52:12;4.35;;;1.92;;
20997;SDS011;10657;51.276;6.390;2023-05-07T10:54:43;6.80;;;2.92;;
20997;SDS011;10657;51.276;6.390;2023-05-07T11:03:04;3.28;;;1.42;;
20997;SDS011;10657;51.276;6.390;2023-05-07T11:05:33;5.93;;;2.08;;
20997;SDS011;10657;51.276;6.390;2023-05-07T11:08:04;3.00;;;1.40;;
20997;SDS011;10657;51.276;6.390;2023-05-07T11:13:16;5.38;;;2.03;;
20997;SDS011;10657;51.276;6.390;2023-05-07T11:15:47;4.60;;;1.90;;
20997;SDS011;10657;51.276;6.390;2023-05-07T11:18:15;4.68;;;2.10;;
20997;SDS011;10657;51.276;6.390;2023-05-07T11:26:07;6.50;;;2.70;;
20997;SDS011;10657;51.276;6.390;2023-05-07T11:28:39;4.72;;;2.10;;
20997;SDS011;10657;51.276;6.390;2023-05-07T11:31:06;5.72;;;2.53;;
20997;SDS011;10657;51.276;6.390;2023-05-07T11:33:34;5.28;;;2.25;;
20997;SDS011;10657;51.276;6.390;2023-05-07T11:36:02;5.47;;;2.45;;
20997;SDS011;10657;51.276;6.390;2023-05-07T11:38:30;3.47;;;1.40;;
20997;SDS011;10657;51.276;6.390;2023-05-07T11:41:00;3.45;;;1.55;;
20997;SDS011;10657;51.276;6.390;2023-05-07T11:43:28;4.55;;;1.70;;
20997;SDS011;10657;51.276;6.390;2023-05-07T11:45:55;7.45;;;2.30;;
20997;SDS011;10657;51.276;6.390;2023-05-07T11:48:34;7.53;;;2.38;;
20997;SDS011;10657;51.276;6.390;2023-05-07T11:51:02;5.03;;;1.92;;
20997;SDS011;10657;51.276;6.390;2023-05-07T11:53:38;4.45;;;1.65;;
20997;SDS011;10657;51.276;6.390;2023-05-07T11:56:15;4.88;;;2.20;;
20997;SDS011;10657;51.276;6.390;2023-05-07T11:58:43;4.95;;;1.85;;
20997;SDS011;10657;51.276;6.390;2023-05-07T12:01:11;5.90;;;2.30;;
20997;SDS011;10657;51.276;6.390;2023-05-07T12:03:42;4.47;;;1.75;;
20997;SDS011;10657;51.276;6.390;2023-05-07T12:06:14;5.45;;;2.20;;
20997;SDS011;10657;51.276;6.390;2023-05-07T12:08:43;3.67;;;1.40;;
20997;SDS011;10657;51.276;6.390;2023-05-07T12:11:18;3.10;;;1.30;;
20997;SDS011;10657;51.276;6.390;2023-05-07T12:13:49;3.78;;;1.45;;
20997;SDS011;10657;51.276;6.390;2023-05-07T12:16:15;4.75;;;1.70;;
20997;SDS011;10657;51.276;6.390;2023-05-07T12:18:43;5.65;;;1.98;;
20997;SDS011;10657;51.276;6.390;2023-05-07T12:21:10;6.28;;;1.90;;
20997;SDS011;10657;51.276;6.390;2023-05-07T12:23:38;4.53;;;1.73;;
20997;SDS011;10657;51.276;6.390;2023-05-07T12:26:05;10.63;;;5.57;;
20997;SDS011;10657;51.276;6.390;2023-05-07T12:28:36;7.68;;;4.00;;
20997;SDS011;10657;51.276;6.390;2023-05-07T12:31:04;5.57;;;2.10;;
20997;SDS011;10657;51.276;6.390;2023-05-07T12:33:32;4.47;;;1.88;;
20997;SDS011;10657;51.276;6.390;2023-05-07T12:36:02;4.75;;;1.75;;
20997;SDS011;10657;51.276;6.390;2023-05-07T12:38:34;4.60;;;2.03;;
20997;SDS011;10657;51.276;6.390;2023-05-07T12:41:02;6.45;;;2.08;;
20997;SDS011;10657;51.276;6.390;2023-05-07T12:43:28;7.60;;;2.33;;
20997;SDS011;10657;51.276;6.390;2023-05-07T12:45:56;6.15;;;1.80;;
20997;SDS011;10657;51.276;6.390;2023-05-07T12:48:25;4.63;;;1.70;;
20997;SDS011;10657;51.276;6.390;2023-05-07T12:50:55;5.32;;;2.08;;
20997;SDS011;10657;51.276;6.390;2023-05-07T12:53:24;5.88;;;2.40;;
20997;SDS011;10657;51.276;6.390;2023-05-07T12:55:53;6.05;;;2.05;;
20997;SDS011;10657;51.276;6.390;2023-05-07T12:58:28;4.82;;;2.08;;
20997;SDS011;10657;51.276;6.390;2023-05-07T13:00:57;5.68;;;2.40;;
20997;SDS011;10657;51.276;6.390;2023-05-07T13:06:00;9.02;;;2.40;;
20997;SDS011;10657;51.276;6.390;2023-05-07T13:08:41;4.68;;;2.08;;
20997;SDS011;10657;51.276;6.390;2023-05-07T13:11:11;7.85;;;3.05;;
20997;SDS011;10657;51.276;6.390;2023-05-07T13:13:39;6.97;;;2.70;;
20997;SDS011;10657;51.276;6.390;2023-05-07T13:16:07;6.57;;;2.53;;
20997;SDS011;10657;51.276;6.390;2023-05-07T13:18:36;6.18;;;2.20;;
20997;SDS011;10657;51.276;6.390;2023-05-07T13:21:04;4.82;;;2.05;;
20997;SDS011;10657;51.276;6.390;2023-05-07T13:23:30;7.78;;;2.42;;
20997;SDS011;10657;51.276;6.390;2023-05-07T13:25:57;7.00;;;2.83;;
20997;SDS011;10657;51.276;6.390;2023-05-07T13:28:24;7.45;;;2.58;;
20997;SDS011;10657;51.276;6.390;2023-05-07T13:30:52;13.07;;;2.30;;
20997;SDS011;10657;51.276;6.390;2023-05-07T13:33:19;6.15;;;2.80;;
20997;SDS011;10657;51.276;6.390;2023-05-07T13:35:45;5.43;;;1.98;;
20997;SDS011;10657;51.276;6.390;2023-05-07T13:38:12;6.28;;;2.15;;
20997;SDS011;10657;51.276;6.390;2023-05-07T13:40:39;8.50;;;2.45;;
20997;SDS011;10657;51.276;6.390;2023-05-07T13:43:05;6.35;;;2.05;;
20997;SDS011;10657;51.276;6.390;2023-05-07T13:45:32;4.57;;;1.80;;
20997;SDS011;10657;51.276;6.390;2023-05-07T13:48:00;6.13;;;2.58;;
20997;SDS011;10657;51.276;6.390;2023-05-07T13:50:27;5.70;;;2.60;;
20997;SDS011;10657;51.276;6.390;2023-05-07T13:52:55;5.15;;;2.30;;
20997;SDS011;10657;51.276;6.390;2023-05-07T13:55:22;7.88;;;4.03;;
20997;SDS011;10657;51.276;6.390;2023-05-07T13:57:56;6.22;;;2.70;;
20997;SDS011;10657;51.276;6.390;2023-05-07T14:00:24;4.85;;;1.83;;
20997;SDS011;10657;51.276;6.390;2023-05-07T14:02:52;8.50;;;3.75;;
20997;SDS011;10657;51.276;6.390;2023-05-07T14:05:19;6.30;;;2.03;;
20997;SDS011;10657;51.276;6.390;2023-05-07T14:07:46;15.13;;;11.70;;
20997;SDS011;10657;51.276;6.390;2023-05-07T14:10:15;5.82;;;2.33;;
20997;SDS011;10657;51.276;6.390;2023-05-07T14:12:41;11.32;;;6.28;;
20997;SDS011;10657;51.276;6.390;2023-05-07T14:15:08;9.32;;;4.65;;
20997;SDS011;10657;51.276;6.390;2023-05-07T14:17:35;10.55;;;4.00;;
20997;SDS011;10657;51.276;6.390;2023-05-07T14:20:02;10.20;;;4.28;;
20997;SDS011;10657;51.276;6.390;2023-05-07T14:22:29;13.30;;;6.38;;
20997;SDS011;10657;51.276;6.390;2023-05-07T14:24:56;12.10;;;4.97;;
20997;SDS011;10657;51.276;6.390;2023-05-07T14:27:38;9.95;;;3.83;;
20997;SDS011;10657;51.276;6.390;2023-05-07T14:30:05;6.22;;;2.70;;
20997;SDS011;10657;51.276;6.390;2023-05-07T14:32:33;6.45;;;2.00;;
20997;SDS011;10657;51.276;6.390;2023-05-07T14:35:00;8.35;;;2.85;;
20997;SDS011;10657;51.276;6.390;2023-05-07T14:37:27;7.07;;;2.85;;
20997;SDS011;10657;51.276;6.390;2023-05-07T14:39:54;7.15;;;2.42;;
20997;SDS011;10657;51.276;6.390;2023-05-07T14:42:20;5.88;;;2.17;;
20997;SDS011;10657;51.276;6.390;2023-05-07T14:44:47;6.57;;;2.20;;
20997;SDS011;10657;51.276;6.390;2023-05-07T14:47:14;6.38;;;2.05;;
20997;SDS011;10657;51.276;6.390;2023-05-07T14:49:44;4.75;;;1.90;;
20997;SDS011;10657;51.276;6.390;2023-05-07T14:52:11;6.30;;;2.10;;
20997;SDS011;10657;51.276;6.390;2023-05-07T14:54:38;6.13;;;2.30;;
20997;SDS011;10657;51.276;6.390;2023-05-07T14:57:05;9.27;;;3.20;;
20997;SDS011;10657;51.276;6.390;2023-05-07T14:59:32;5.50;;;2.17;;
20997;SDS011;10657;51.276;6.390;2023-05-07T15:01:59;6.68;;;2.28;;
20997;SDS011;10657;51.276;6.390;2023-05-07T15:04:29;7.15;;;2.63;;
20997;SDS011;10657;51.276;6.390;2023-05-07T15:06:55;4.90;;;2.17;;